Bradford, NH (03221)

12:12 AM EST on February 14, 2016 (GMT -0500)
Bly Hill | | Change Station
CLOSE
Current Station
Personal Weather Station
Location: Newbury, NH
Elevation: 1580 ft
Nearby Weather Stations
Active Advisory: Wind Chill Warning Active Notice: Public Information Statement

Elev 1580 ft 43.34 °N, 72.03 °W | Updated 2 minutes ago

Partly Cloudy
Partly Cloudy
-18.4 °F
Feels Like -30 °F
N
4.0
Wind Variable Wind from WNW
Gusts 13.0 mph

Today
High -- | Low -- °F
--% Chance of Precip.
Yesterday
High -- | Low -- °F
Precip. -- in
Pressure 30.19 in
Visibility 10.0 miles
Clouds Clear
Windchill -30 °F
Dew Point -25 °F
Humidity 72%
Rainfall 0.00 in
Snow Depth Not available.
6:48 AM 5:16 PM
Waxing Crescent, 38% visible
METAR KCON 140451Z AUTO 32020G32KT 10SM CLR M24/M33 A3016 RMK AO2 PK WND 30033/0433 SLP223 T12441333 410721244
Pressure 30.19 in
Visibility 10.0 miles
Clouds Clear
Windchill -30 °F
Dew Point -25 °F
Humidity 72%
Rainfall 0.00 in
Snow Depth Not available.
6:48 AM 5:16 PM
Waxing Crescent, 38% visible
METAR KCON 140451Z AUTO 32020G32KT 10SM CLR M24/M33 A3016 RMK AO2 PK WND 30033/0433 SLP223 T12441333 410721244

10-Day Weather Forecast

Almanac

Astronomy

Feb. 14, 2016 Rise Set
Actual Time
Civil Twilight
Nautical Twilight
Astronomical Twilight
Moon
Length of Visible Light
Length of Day
Tomorrow will be .
, % of the Moon is Illuminated

Today's Extremes

State Highs State Lows

Community

WunderPhotos

Upload Photos

1,892,748 photos uploaded!

WunderBlog® & News

Nearby

Air Quality

  Air Quality AQ Index Pollutant
Not available.

Snow Depth

Station Depth Elevation

Earthquake Activity

City Distance Mag. Time & Date
Minimum magnitude displayed is 2.5.

Coastal Water Temperatures

Place Temperature

Stations

Nearby Weather Stations

Station Location Temp. Windchill Dew Point Humidity Wind Precip. Elev Updated Type
                   

Watches & Warnings

Wind Chill Warning
Issued: 9:10 PM EST Feb. 13, 2016 – National Weather Service

... Wind chill warning remains in effect until 10 am EST Sunday...

* hazard types... dangerous wind chill readings.

* Wind chill... as low as 39 below due to temperatures 5 below to
16 below zero... and winds northwest 10 to 20 mph with gusts up
to 30 mph.

* Timing... tonight and Sunday morning.

* Impacts... frostbite and hypothermia if unprotected from the
cold.

* Winds... northwest 10 to 20 mph with gusts up to 30 mph.

* Temperatures... 5 below to 16 below zero.

Precautionary/preparedness actions...

A wind chill warning means the combination of very cold air and
strong winds will create dangerously low wind chill values. This
will result in frost bite and lead to hypothermia or death if
precautions are not taken.